PWSweather.com
Personal Weather Stations
Station Observations
KAZTUCSO57
Countryside Manor, Tucson, AZ 85742

Countryside ManorTucson, AZ 85742

Lat: 32.3692, Lon: -111.066

Elevation: 2307

Station Type: Davis VP Pro+ 6163

http://frogville.us

Latest ConditionsUpdated 9:30:00 PM MST Friday, Aug 17, 2018
Currently Today's Max Today's Min Today's Average
Temperature 90.1°F32.3°C 103.0°F39.4°C 76.5°F24.7°C 89.8°F32.1°C
Dew Point 63.3°F17.4°C 69.6°F20.9°C 63.0°F17.2°C 67.1°F19.5°C
Winds Calm Calm 4.6 mph -7.4 kmh - - 1.0 mph 1.6 kmh
Wind Gusts -- 8.1 mph13.0 kmh - -
Humidity 41% 75% 30% 50%
Pressure 29.85 in1010.8 mb 29.93 in1013.5 mb 29.80 in1009.1 mb -
Hour Temp Dew Point Humidity Winds Wind Gusts Pressure Precip Precip Rate Daily Precip Total
09:30 PM 90.1°F32.3°C 63.3°F17.4°C 41% Calm Calm -- 29.85 in1010.8 mb - 0.00 in0.0 mm 0.00 in0.0 mm
09:20 PM 90.5°F32.5°C 63.6°F17.6°C 41% Calm Calm 1.2 mph1.9 kmh 29.85 in1010.8 mb - 0.00 in0.0 mm 0.00 in0.0 mm
09:10 PM 90.6°F32.6°C 63.0°F17.2°C 40% Calm Calm -- 29.85 in1010.8 mb - 0.00 in0.0 mm 0.00 in0.0 mm
09:00 PM 90.9°F32.7°C 63.3°F17.4°C 40% Calm Calm -- 29.85 in1010.8 mb - 0.00 in0.0 mm 0.00 in0.0 mm
08:50 PM 91.2°F32.9°C 63.5°F17.5°C 40% Calm Calm -- 29.84 in1010.5 mb - 0.00 in0.0 mm 0.00 in0.0 mm
08:40 PM 91.5°F33.1°C 63.1°F17.3°C 39% Calm Calm 1.2 mph1.9 kmh 29.84 in1010.5 mb - 0.00 in0.0 mm 0.00 in0.0 mm
08:30 PM 92.0°F33.3°C 63.5°F17.5°C 39% Calm Calm 1.2 mph1.9 kmh 29.84 in1010.5 mb - 0.00 in0.0 mm 0.00 in0.0 mm
08:20 PM 92.3°F33.5°C 63.8°F17.7°C 39% Calm Calm 1.2 mph1.9 kmh 29.83 in1010.2 mb - 0.00 in0.0 mm 0.00 in0.0 mm
08:10 PM 92.6°F33.7°C 63.3°F17.4°C 38% Calm Calm 1.2 mph1.9 kmh 29.83 in1010.2 mb - 0.00 in0.0 mm 0.00 in0.0 mm
08:00 PM 92.9°F33.8°C 63.6°F17.6°C 38% Calm Calm 1.2 mph1.9 kmh 29.83 in1010.2 mb - 0.00 in0.0 mm 0.00 in0.0 mm
07:50 PM 93.2°F34.0°C 63.8°F17.7°C 38% Calm Calm 1.2 mph1.9 kmh 29.83 in1010.2 mb - 0.00 in0.0 mm 0.00 in0.0 mm
07:40 PM 93.4°F34.1°C 63.2°F17.3°C 37% Calm Calm -- 29.83 in1010.2 mb - 0.00 in0.0 mm 0.00 in0.0 mm
07:30 PM 93.6°F34.2°C 63.4°F17.4°C 37% Calm Calm 1.2 mph1.9 kmh 29.82 in1009.8 mb - 0.00 in0.0 mm 0.00 in0.0 mm
07:20 PM 93.8°F34.3°C 63.6°F17.6°C 37% 1.2 mph WNW1.9 kmh WNW 4.6 mph7.4 kmh 29.82 in1009.8 mb - 0.00 in0.0 mm 0.00 in0.0 mm
07:10 PM 94.1°F34.5°C 63.9°F17.7°C 37% Calm Calm 1.2 mph1.9 kmh 29.81 in1009.5 mb - 0.00 in0.0 mm 0.00 in0.0 mm
07:00 PM 94.4°F34.7°C 64.1°F17.8°C 37% 1.2 mph WNW1.9 kmh WNW 2.3 mph3.7 kmh 29.81 in1009.5 mb - 0.00 in0.0 mm 0.00 in0.0 mm
06:50 PM 94.7°F34.8°C 64.4°F18.0°C 37% 1.2 mph WSW1.9 kmh WSW 3.5 mph5.6 kmh 29.80 in1009.1 mb - 0.00 in0.0 mm 0.00 in0.0 mm
06:40 PM 95.0°F35.0°C 63.8°F17.7°C 36% 1.2 mph W1.9 kmh W 2.3 mph3.7 kmh 29.80 in1009.1 mb - 0.00 in0.0 mm 0.00 in0.0 mm
06:30 PM 95.2°F35.1°C 64.0°F17.8°C 36% 1.2 mph NW1.9 kmh NW 2.3 mph3.7 kmh 29.80 in1009.1 mb - 0.00 in0.0 mm 0.00 in0.0 mm
06:20 PM 95.4°F35.2°C 64.2°F17.9°C 36% 3.5 mph W5.6 kmh W 5.8 mph9.3 kmh 29.80 in1009.1 mb - 0.00 in0.0 mm 0.00 in0.0 mm
06:10 PM 95.6°F35.3°C 64.4°F18.0°C 36% 2.3 mph W3.7 kmh W 5.8 mph9.3 kmh 29.80 in1009.1 mb - 0.00 in0.0 mm 0.00 in0.0 mm
06:00 PM 95.7°F35.4°C 64.5°F18.1°C 36% 2.3 mph W3.7 kmh W 3.5 mph5.6 kmh 29.80 in1009.1 mb - 0.00 in0.0 mm 0.00 in0.0 mm
05:50 PM 95.7°F35.4°C 64.5°F18.1°C 36% 2.3 mph W3.7 kmh W 3.5 mph5.6 kmh 29.80 in1009.1 mb - 0.00 in0.0 mm 0.00 in0.0 mm
05:40 PM 95.9°F35.5°C 64.7°F18.2°C 36% 2.3 mph NW3.7 kmh NW 2.3 mph3.7 kmh 29.80 in1009.1 mb - 0.00 in0.0 mm 0.00 in0.0 mm
05:30 PM 96.1°F35.6°C 64.8°F18.2°C 36% 4.6 mph WSW7.4 kmh WSW 5.8 mph9.3 kmh 29.80 in1009.1 mb - 0.00 in0.0 mm 0.00 in0.0 mm
05:20 PM 96.3°F35.7°C 65.8°F18.8°C 37% 2.3 mph NW3.7 kmh NW 4.6 mph7.4 kmh 29.80 in1009.1 mb - 0.00 in0.0 mm 0.00 in0.0 mm
05:10 PM 96.7°F35.9°C 66.1°F18.9°C 37% 2.3 mph NW3.7 kmh NW 3.5 mph5.6 kmh 29.80 in1009.1 mb - 0.00 in0.0 mm 0.00 in0.0 mm
05:00 PM 97.2°F36.2°C 65.8°F18.8°C 36% 3.5 mph SW5.6 kmh SW 4.6 mph7.4 kmh 29.80 in1009.1 mb - 0.00 in0.0 mm 0.00 in0.0 mm
04:50 PM 97.9°F36.6°C 66.4°F19.1°C 36% 3.5 mph W5.6 kmh W 6.9 mph11.1 kmh 29.80 in1009.1 mb - 0.00 in0.0 mm 0.00 in0.0 mm
04:40 PM 98.8°F37.1°C 66.4°F19.1°C 35% 2.3 mph NW3.7 kmh NW 6.9 mph11.1 kmh 29.80 in1009.1 mb - 0.00 in0.0 mm 0.00 in0.0 mm
04:30 PM 99.7°F37.6°C 66.3°F19.1°C 34% 2.3 mph NW3.7 kmh NW 5.8 mph9.3 kmh 29.80 in1009.1 mb - 0.00 in0.0 mm 0.00 in0.0 mm
04:20 PM 100.7°F38.2°C 66.3°F19.1°C 33% 2.3 mph NW3.7 kmh NW 5.8 mph9.3 kmh 29.80 in1009.1 mb - 0.00 in0.0 mm 0.00 in0.0 mm
04:10 PM 101.1°F38.4°C 66.7°F19.3°C 33% 3.5 mph WSW5.6 kmh WSW 4.6 mph7.4 kmh 29.80 in1009.1 mb - 0.00 in0.0 mm 0.00 in0.0 mm
04:00 PM 101.9°F38.8°C 65.6°F18.7°C 31% 3.5 mph SW5.6 kmh SW 4.6 mph7.4 kmh 29.80 in1009.1 mb - 0.00 in0.0 mm 0.00 in0.0 mm
03:50 PM 102.3°F39.1°C 66.8°F19.3°C 32% 2.3 mph WNW3.7 kmh WNW 6.9 mph11.1 kmh 29.80 in1009.1 mb - 0.00 in0.0 mm 0.00 in0.0 mm
03:40 PM 102.3°F39.1°C 65.0°F18.3°C 30% 4.6 mph WNW7.4 kmh WNW 5.8 mph9.3 kmh 29.81 in1009.5 mb - 0.00 in0.0 mm 0.00 in0.0 mm
03:30 PM 102.1°F38.9°C 65.8°F18.8°C 31% 2.3 mph W3.7 kmh W 6.9 mph11.1 kmh 29.81 in1009.5 mb - 0.00 in0.0 mm 0.00 in0.0 mm
03:20 PM 102.1°F38.9°C 64.8°F18.2°C 30% 2.3 mph SW3.7 kmh SW 5.8 mph9.3 kmh 29.81 in1009.5 mb - 0.00 in0.0 mm 0.00 in0.0 mm
03:10 PM 102.5°F39.2°C 65.2°F18.4°C 30% 2.3 mph W3.7 kmh W 3.5 mph5.6 kmh 29.81 in1009.5 mb - 0.00 in0.0 mm 0.00 in0.0 mm
03:00 PM 102.7°F39.3°C 65.4°F18.6°C 30% 2.3 mph WSW3.7 kmh WSW 3.5 mph5.6 kmh 29.82 in1009.8 mb - 0.00 in0.0 mm 0.00 in0.0 mm
02:50 PM 103.0°F39.4°C 65.6°F18.7°C 30% 1.2 mph SW1.9 kmh SW 3.5 mph5.6 kmh 29.82 in1009.8 mb - 0.00 in0.0 mm 0.00 in0.0 mm
02:40 PM 102.4°F39.1°C 66.0°F18.9°C 31% 3.5 mph NW5.6 kmh NW 8.1 mph13.0 kmh 29.82 in1009.8 mb - 0.00 in0.0 mm 0.00 in0.0 mm
02:30 PM 102.3°F39.1°C 65.9°F18.8°C 31% 3.5 mph W5.6 kmh W 6.9 mph11.1 kmh 29.83 in1010.2 mb - 0.00 in0.0 mm 0.00 in0.0 mm
02:20 PM 101.8°F38.8°C 65.5°F18.6°C 31% 1.2 mph WNW1.9 kmh WNW 3.5 mph5.6 kmh 29.83 in1010.2 mb - 0.00 in0.0 mm 0.00 in0.0 mm
02:10 PM 101.5°F38.6°C 65.2°F18.4°C 31% 2.3 mph WSW3.7 kmh WSW 4.6 mph7.4 kmh 29.84 in1010.5 mb - 0.00 in0.0 mm 0.00 in0.0 mm
02:00 PM 100.8°F38.2°C 66.4°F19.1°C 33% 3.5 mph W5.6 kmh W 8.1 mph13.0 kmh 29.84 in1010.5 mb - 0.00 in0.0 mm 0.00 in0.0 mm
01:50 PM 100.1°F37.8°C 64.9°F18.3°C 32% 2.3 mph SW3.7 kmh SW 5.8 mph9.3 kmh 29.84 in1010.5 mb - 0.00 in0.0 mm 0.00 in0.0 mm
01:40 PM 100.1°F37.8°C 65.0°F18.3°C 32% 1.2 mph WSW1.9 kmh WSW 3.5 mph5.6 kmh 29.85 in1010.8 mb - 0.00 in0.0 mm 0.00 in0.0 mm
01:30 PM 100.6°F38.1°C 65.4°F18.6°C 32% 3.5 mph SSW5.6 kmh SSW 3.5 mph5.6 kmh 29.85 in1010.8 mb - 0.00 in0.0 mm 0.00 in0.0 mm
01:20 PM 100.6°F38.1°C 67.1°F19.5°C 34% 1.2 mph W1.9 kmh W 3.5 mph5.6 kmh 29.85 in1010.8 mb - 0.00 in0.0 mm 0.00 in0.0 mm
01:10 PM 100.7°F38.2°C 67.2°F19.6°C 34% 2.3 mph W3.7 kmh W 4.6 mph7.4 kmh 29.86 in1011.2 mb - 0.00 in0.0 mm 0.00 in0.0 mm
01:00 PM 100.4°F38.0°C 67.8°F19.9°C 35% 1.2 mph NNW1.9 kmh NNW 3.5 mph5.6 kmh 29.86 in1011.2 mb - 0.00 in0.0 mm 0.00 in0.0 mm
12:50 PM 100.0°F37.8°C 67.5°F19.7°C 35% 2.3 mph SSW3.7 kmh SSW 3.5 mph5.6 kmh 29.86 in1011.2 mb - 0.00 in0.0 mm 0.00 in0.0 mm
12:40 PM 101.0°F38.3°C 68.3°F20.2°C 35% 4.6 mph W7.4 kmh W 6.9 mph11.1 kmh 29.87 in1011.5 mb - 0.00 in0.0 mm 0.00 in0.0 mm
12:30 PM 100.3°F37.9°C 68.5°F20.3°C 36% 3.5 mph WSW5.6 kmh WSW 5.8 mph9.3 kmh 29.87 in1011.5 mb - 0.00 in0.0 mm 0.00 in0.0 mm
12:20 PM 100.2°F37.9°C 67.6°F19.8°C 35% 1.2 mph WNW1.9 kmh WNW 2.3 mph3.7 kmh 29.88 in1011.9 mb - 0.00 in0.0 mm 0.00 in0.0 mm
12:10 PM 99.8°F37.7°C 68.9°F20.5°C 37% 1.2 mph WNW1.9 kmh WNW 4.6 mph7.4 kmh 29.88 in1011.9 mb - 0.00 in0.0 mm 0.00 in0.0 mm
12:00 PM 99.0°F37.2°C 69.0°F20.6°C 38% 1.2 mph WSW1.9 kmh WSW 3.5 mph5.6 kmh 29.89 in1012.2 mb - 0.00 in0.0 mm 0.00 in0.0 mm
11:50 AM 98.4°F36.9°C 69.2°F20.7°C 39% 3.5 mph WSW5.6 kmh WSW 5.8 mph9.3 kmh 29.89 in1012.2 mb - 0.00 in0.0 mm 0.00 in0.0 mm
11:40 AM 97.0°F36.1°C 69.4°F20.8°C 41% 1.2 mph N1.9 kmh N 4.6 mph7.4 kmh 29.89 in1012.2 mb - 0.00 in0.0 mm 0.00 in0.0 mm
11:30 AM 96.9°F36.1°C 67.8°F19.9°C 39% 2.3 mph SW3.7 kmh SW 5.8 mph9.3 kmh 29.89 in1012.2 mb - 0.00 in0.0 mm 0.00 in0.0 mm
11:20 AM 96.8°F36.0°C 69.2°F20.7°C 41% 3.5 mph SW5.6 kmh SW 4.6 mph7.4 kmh 29.90 in1012.5 mb - 0.00 in0.0 mm 0.00 in0.0 mm
11:10 AM 96.5°F35.8°C 68.9°F20.5°C 41% 1.2 mph W1.9 kmh W 2.3 mph3.7 kmh 29.90 in1012.5 mb - 0.00 in0.0 mm 0.00 in0.0 mm
11:00 AM 96.0°F35.6°C 69.2°F20.7°C 42% 1.2 mph WSW1.9 kmh WSW 3.5 mph5.6 kmh 29.90 in1012.5 mb - 0.00 in0.0 mm 0.00 in0.0 mm
10:50 AM 94.8°F34.9°C 68.9°F20.5°C 43% Calm Calm 2.3 mph3.7 kmh 29.90 in1012.5 mb - 0.00 in0.0 mm 0.00 in0.0 mm
10:40 AM 93.8°F34.3°C 69.3°F20.7°C 45% 1.2 mph WNW1.9 kmh WNW 3.5 mph5.6 kmh 29.91 in1012.9 mb - 0.00 in0.0 mm 0.00 in0.0 mm
10:30 AM 92.8°F33.8°C 69.0°F20.6°C 46% 1.2 mph SW1.9 kmh SW 3.5 mph5.6 kmh 29.91 in1012.9 mb - 0.00 in0.0 mm 0.00 in0.0 mm
10:20 AM 91.8°F33.2°C 69.3°F20.7°C 48% 1.2 mph SSW1.9 kmh SSW 2.3 mph3.7 kmh 29.92 in1013.2 mb - 0.00 in0.0 mm 0.00 in0.0 mm
10:10 AM 91.1°F32.8°C 68.7°F20.4°C 48% 1.2 mph SSW1.9 kmh SSW 3.5 mph5.6 kmh 29.92 in1013.2 mb - 0.00 in0.0 mm 0.00 in0.0 mm
10:00 AM 91.6°F33.1°C 68.5°F20.3°C 47% 2.3 mph SSW3.7 kmh SSW 3.5 mph5.6 kmh 29.92 in1013.2 mb - 0.00 in0.0 mm 0.00 in0.0 mm
09:50 AM 91.9°F33.3°C 68.8°F20.4°C 47% 2.3 mph WSW3.7 kmh WSW 4.6 mph7.4 kmh 29.92 in1013.2 mb - 0.00 in0.0 mm 0.00 in0.0 mm
09:40 AM 92.2°F33.4°C 69.1°F20.6°C 47% 3.5 mph SW5.6 kmh SW 3.5 mph5.6 kmh 29.92 in1013.2 mb - 0.00 in0.0 mm 0.00 in0.0 mm
09:30 AM 91.4°F33.0°C 68.9°F20.5°C 48% Calm Calm 1.2 mph1.9 kmh 29.93 in1013.5 mb - 0.00 in0.0 mm 0.00 in0.0 mm
09:20 AM 90.9°F32.7°C 69.1°F20.6°C 49% 1.2 mph WSW1.9 kmh WSW 3.5 mph5.6 kmh 29.92 in1013.2 mb - 0.00 in0.0 mm 0.00 in0.0 mm
09:10 AM 90.0°F32.2°C 69.4°F20.8°C 51% 1.2 mph N1.9 kmh N 1.2 mph1.9 kmh 29.92 in1013.2 mb - 0.00 in0.0 mm 0.00 in0.0 mm
09:00 AM 89.0°F31.7°C 69.1°F20.6°C 52% Calm Calm 1.2 mph1.9 kmh 29.93 in1013.5 mb - 0.00 in0.0 mm 0.00 in0.0 mm
08:50 AM 88.0°F31.1°C 69.3°F20.7°C 54% 1.2 mph W1.9 kmh W 3.5 mph5.6 kmh 29.92 in1013.2 mb - 0.00 in0.0 mm 0.00 in0.0 mm
08:40 AM 87.1°F30.6°C 69.5°F20.8°C 56% Calm Calm -- 29.93 in1013.5 mb - 0.00 in0.0 mm 0.00 in0.0 mm
08:30 AM 86.3°F30.2°C 69.3°F20.7°C 57% 1.2 mph SSE1.9 kmh SSE 3.5 mph5.6 kmh 29.93 in1013.5 mb - 0.00 in0.0 mm 0.00 in0.0 mm
08:20 AM 85.5°F29.7°C 69.6°F20.9°C 59% Calm Calm 1.2 mph1.9 kmh 29.93 in1013.5 mb - 0.00 in0.0 mm 0.00 in0.0 mm
08:10 AM 84.5°F29.2°C 69.1°F20.6°C 60% Calm Calm 1.2 mph1.9 kmh 29.93 in1013.5 mb - 0.00 in0.0 mm 0.00 in0.0 mm
08:00 AM 83.7°F28.7°C 68.8°F20.4°C 61% Calm Calm -- 29.93 in1013.5 mb - 0.00 in0.0 mm 0.00 in0.0 mm
07:50 AM 82.9°F28.3°C 69.0°F20.6°C 63% Calm Calm 2.3 mph3.7 kmh 29.93 in1013.5 mb - 0.00 in0.0 mm 0.00 in0.0 mm
07:40 AM 82.0°F27.8°C 69.1°F20.6°C 65% Calm Calm 1.2 mph1.9 kmh 29.93 in1013.5 mb - 0.00 in0.0 mm 0.00 in0.0 mm
07:30 AM 80.8°F27.1°C 68.8°F20.4°C 67% Calm Calm -- 29.92 in1013.2 mb - 0.00 in0.0 mm 0.00 in0.0 mm
07:20 AM 79.6°F26.4°C 69.0°F20.6°C 70% Calm Calm 2.3 mph3.7 kmh 29.92 in1013.2 mb - 0.00 in0.0 mm 0.00 in0.0 mm
07:10 AM 78.7°F25.9°C 68.9°F20.5°C 72% Calm Calm 1.2 mph1.9 kmh 29.92 in1013.2 mb - 0.00 in0.0 mm 0.00 in0.0 mm
07:00 AM 78.0°F25.6°C 68.6°F20.3°C 73% Calm Calm -- 29.92 in1013.2 mb - 0.00 in0.0 mm 0.00 in0.0 mm
06:50 AM 77.3°F25.2°C 68.3°F20.2°C 74% Calm Calm -- 29.92 in1013.2 mb - 0.00 in0.0 mm 0.00 in0.0 mm
06:40 AM 76.9°F24.9°C 68.3°F20.2°C 75% Calm Calm -- 29.92 in1013.2 mb - 0.00 in0.0 mm 0.00 in0.0 mm
06:30 AM 76.6°F24.8°C 68.1°F20.1°C 75% Calm Calm -- 29.92 in1013.2 mb - 0.00 in0.0 mm 0.00 in0.0 mm
06:20 AM 76.6°F24.8°C 68.1°F20.1°C 75% Calm Calm -- 29.92 in1013.2 mb - 0.00 in0.0 mm 0.00 in0.0 mm
06:10 AM 76.5°F24.7°C 68.0°F20.0°C 75% Calm Calm -- 29.92 in1013.2 mb - 0.00 in0.0 mm 0.00 in0.0 mm
06:00 AM 76.5°F24.7°C 68.0°F20.0°C 75% Calm Calm 1.2 mph1.9 kmh 29.92 in1013.2 mb - 0.00 in0.0 mm 0.00 in0.0 mm
05:50 AM 76.6°F24.8°C 67.7°F19.8°C 74% Calm Calm 1.2 mph1.9 kmh 29.91 in1012.9 mb - 0.00 in0.0 mm 0.00 in0.0 mm
05:40 AM 76.7°F24.8°C 67.8°F19.9°C 74% Calm Calm -- 29.91 in1012.9 mb - 0.00 in0.0 mm 0.00 in0.0 mm
05:30 AM 76.8°F24.9°C 67.9°F19.9°C 74% Calm Calm -- 29.91 in1012.9 mb - 0.00 in0.0 mm 0.00 in0.0 mm
05:20 AM 76.9°F24.9°C 68.0°F20.0°C 74% Calm Calm -- 29.91 in1012.9 mb - 0.00 in0.0 mm 0.00 in0.0 mm
05:10 AM 77.1°F25.1°C 67.8°F19.9°C 73% Calm Calm -- 29.90 in1012.5 mb - 0.00 in0.0 mm 0.00 in0.0 mm
05:00 AM 77.2°F25.1°C 67.9°F19.9°C 73% Calm Calm 1.2 mph1.9 kmh 29.90 in1012.5 mb - 0.00 in0.0 mm 0.00 in0.0 mm
04:50 AM 77.5°F25.3°C 68.2°F20.1°C 73% Calm Calm -- 29.90 in1012.5 mb - 0.00 in0.0 mm 0.00 in0.0 mm
04:40 AM 77.7°F25.4°C 68.0°F20.0°C 72% Calm Calm -- 29.90 in1012.5 mb - 0.00 in0.0 mm 0.00 in0.0 mm
04:30 AM 77.8°F25.4°C 68.0°F20.0°C 72% Calm Calm -- 29.90 in1012.5 mb - 0.00 in0.0 mm 0.00 in0.0 mm
04:20 AM 77.9°F25.5°C 68.1°F20.1°C 72% Calm Calm -- 29.89 in1012.2 mb - 0.00 in0.0 mm 0.00 in0.0 mm
04:10 AM 78.0°F25.6°C 67.8°F19.9°C 71% Calm Calm -- 29.89 in1012.2 mb - 0.00 in0.0 mm 0.00 in0.0 mm
04:00 AM 78.2°F25.7°C 68.0°F20.0°C 71% Calm Calm -- 29.89 in1012.2 mb - 0.00 in0.0 mm 0.00 in0.0 mm
03:50 AM 78.5°F25.8°C 67.9°F19.9°C 70% Calm Calm -- 29.89 in1012.2 mb - 0.00 in0.0 mm 0.00 in0.0 mm
03:40 AM 78.7°F25.9°C 68.5°F20.3°C 71% Calm Calm -- 29.89 in1012.2 mb - 0.00 in0.0 mm 0.00 in0.0 mm
03:30 AM 78.9°F26.1°C 68.7°F20.4°C 71% Calm Calm -- 29.89 in1012.2 mb - 0.00 in0.0 mm 0.00 in0.0 mm
03:20 AM 79.2°F26.2°C 68.6°F20.3°C 70% Calm Calm -- 29.89 in1012.2 mb - 0.00 in0.0 mm 0.00 in0.0 mm
03:10 AM 79.6°F26.4°C 68.5°F20.3°C 69% Calm Calm -- 29.89 in1012.2 mb - 0.00 in0.0 mm 0.00 in0.0 mm
03:00 AM 79.8°F26.6°C 68.7°F20.4°C 69% Calm Calm -- 29.90 in1012.5 mb - 0.00 in0.0 mm 0.00 in0.0 mm
02:50 AM 80.1°F26.7°C 68.1°F20.1°C 67% Calm Calm -- 29.89 in1012.2 mb - 0.00 in0.0 mm 0.00 in0.0 mm
02:40 AM 80.3°F26.8°C 68.3°F20.2°C 67% Calm Calm -- 29.89 in1012.2 mb - 0.00 in0.0 mm 0.00 in0.0 mm
02:30 AM 80.3°F26.8°C 68.4°F20.2°C 67% Calm Calm -- 29.89 in1012.2 mb - 0.00 in0.0 mm 0.00 in0.0 mm
02:20 AM 80.8°F27.1°C 68.8°F20.4°C 67% Calm Calm -- 29.89 in1012.2 mb - 0.00 in0.0 mm 0.00 in0.0 mm
02:10 AM 80.9°F27.2°C 68.9°F20.5°C 67% Calm Calm -- 29.89 in1012.2 mb - 0.00 in0.0 mm 0.00 in0.0 mm
02:00 AM 81.2°F27.3°C 68.7°F20.4°C 66% Calm Calm -- 29.89 in1012.2 mb - 0.00 in0.0 mm 0.00 in0.0 mm
01:50 AM 81.4°F27.4°C 68.9°F20.5°C 66% Calm Calm -- 29.89 in1012.2 mb - 0.00 in0.0 mm 0.00 in0.0 mm
01:40 AM 81.6°F27.6°C 68.7°F20.4°C 65% Calm Calm -- 29.89 in1012.2 mb - 0.00 in0.0 mm 0.00 in0.0 mm
01:30 AM 81.7°F27.6°C 68.4°F20.2°C 64% Calm Calm -- 29.89 in1012.2 mb - 0.00 in0.0 mm 0.00 in0.0 mm
01:20 AM 82.0°F27.8°C 68.6°F20.3°C 64% Calm Calm -- 29.89 in1012.2 mb - 0.00 in0.0 mm 0.00 in0.0 mm
01:10 AM 82.3°F27.9°C 68.9°F20.5°C 64% Calm Calm -- 29.89 in1012.2 mb - 0.00 in0.0 mm 0.00 in0.0 mm
01:00 AM 82.5°F28.1°C 69.0°F20.6°C 64% Calm Calm -- 29.89 in1012.2 mb - 0.00 in0.0 mm 0.00 in0.0 mm
12:50 AM 82.7°F28.2°C 68.8°F20.4°C 63% Calm Calm -- 29.89 in1012.2 mb - 0.00 in0.0 mm 0.00 in0.0 mm
12:40 AM 82.9°F28.3°C 69.0°F20.6°C 63% Calm Calm -- 29.90 in1012.5 mb - 0.00 in0.0 mm 0.00 in0.0 mm
12:30 AM 83.3°F28.5°C 68.9°F20.5°C 62% Calm Calm -- 29.90 in1012.5 mb - 0.00 in0.0 mm 0.00 in0.0 mm
12:20 AM 83.6°F28.7°C 68.7°F20.4°C 61% Calm Calm -- 29.90 in1012.5 mb - 0.00 in0.0 mm 0.00 in0.0 mm
12:10 AM 83.8°F28.8°C 68.4°F20.2°C 60% Calm Calm -- 29.90 in1012.5 mb - 0.00 in0.0 mm 0.00 in0.0 mm
12:00 AM 84.0°F28.9°C 68.1°F20.1°C 59% Calm Calm 2.3 mph3.7 kmh 29.91 in1012.9 mb - 0.00 in0.0 mm 0.00 in0.0 mm